Terminal Aerodrome Forecast
Issued by NWS

Home | Current Version | Previous Version | Text Only | Print | Product List | Glossary On
Versions: 1 2 3 4 5 6 7 8 9 10 11 12 13 14 15 16 17 18 19 20 21 22 23 24 25 26 27 28
488
FTAK31 PANC 271128
TAFADQ
TAF
PADQ 271128Z 2712/2812 28016KT P6SM SCT040 BKN200
     FM271600 28015G25KT P6SM BKN200
     FM272200 28022G35KT P6SM BKN200
     FM280300 29025G45KT P6SM BKN200=

USA.gov is the U.S. government's official web portal to all federal, state and local government web resources and services.